createdAt,value
2018-03-22T00:00:01.220Z,-1.8
2018-03-22T00:00:50.984Z,-1.8
2018-03-22T00:01:41.051Z,-1.8
2018-03-22T00:02:31.406Z,-1.8
2018-03-22T00:03:21.327Z,-1.8
2018-03-22T00:04:10.670Z,-1.8
2018-03-22T00:05:01.016Z,-1.8
2018-03-22T00:05:51.061Z,-1.8
2018-03-22T00:06:41.512Z,-1.8
2018-03-22T00:07:30.884Z,-1.8
2018-03-22T00:08:21.517Z,-1.8
2018-03-22T00:09:11.582Z,-1.8
2018-03-22T00:10:01.148Z,-1.8
2018-03-22T00:10:51.486Z,-1.8
2018-03-22T00:11:42.023Z,-1.8
2018-03-22T00:12:31.623Z,-1.8
2018-03-22T00:13:21.846Z,-1.8
2018-03-22T00:14:11.526Z,-1.8
2018-03-22T00:15:01.407Z,-1.9
2018-03-22T00:15:51.446Z,-1.8
2018-03-22T00:16:41.903Z,-1.9
2018-03-22T00:17:31.873Z,-1.9
2018-03-22T00:18:22.242Z,-1.9
2018-03-22T00:19:12.034Z,-1.9
2018-03-22T00:20:02.469Z,-1.9
2018-03-22T00:20:52.135Z,-1.9
2018-03-22T00:21:42.420Z,-1.9
2018-03-22T00:22:32.505Z,-1.9
2018-03-22T00:23:22.367Z,-1.9
2018-03-22T00:24:12.348Z,-1.9
2018-03-22T00:25:02.668Z,-1.9
2018-03-22T00:25:52.468Z,-1.9
2018-03-22T00:26:42.817Z,-1.9
2018-03-22T00:27:32.827Z,-1.9
2018-03-22T00:28:22.917Z,-1.9
2018-03-22T00:29:12.995Z,-1.9
2018-03-22T00:30:02.539Z,-1.9
2018-03-22T00:30:52.609Z,-1.9
2018-03-22T00:31:42.955Z,-1.9
2018-03-22T00:32:33.174Z,-1.9
2018-03-22T00:33:23.257Z,-1.9
2018-03-22T00:34:13.322Z,-1.9
2018-03-22T00:35:02.387Z,-1.9
2018-03-22T00:35:53.137Z,-1.9
2018-03-22T00:36:43.490Z,-1.9
2018-03-22T00:37:32.971Z,-1.9
2018-03-22T00:38:23.627Z,-1.9
2018-03-22T00:39:14.158Z,-1.9
2018-03-22T00:40:03.451Z,-1.9
2018-03-22T00:40:53.500Z,-1.9
2018-03-22T00:41:43.369Z,-1.9
2018-03-22T00:42:34.217Z,-1.9
2018-03-22T00:43:23.677Z,-1.9
2018-03-22T00:44:13.317Z,-1.9
2018-03-22T00:45:04.091Z,-2
2018-03-22T00:45:53.738Z,-1.9
2018-03-22T00:46:43.498Z,-1.9
2018-03-22T00:47:33.965Z,-1.9
2018-03-22T00:48:23.446Z,-2
2018-03-22T00:49:14.363Z,-2
2018-03-22T00:50:04.525Z,-1.9
2018-03-22T00:50:54.483Z,-1.9
2018-03-22T00:51:44.428Z,-2
2018-03-22T00:52:34.343Z,-2
2018-03-22T00:53:24.676Z,-2
2018-03-22T00:54:14.414Z,-2
2018-03-22T00:55:04.086Z,-2
2018-03-22T00:55:54.536Z,-2
2018-03-22T00:56:44.698Z,-2
2018-03-22T00:57:34.845Z,-2
2018-03-22T00:58:24.430Z,-2
2018-03-22T00:59:14.493Z,-2
2018-03-22T01:00:04.803Z,-2
2018-03-22T01:00:55.199Z,-2
2018-03-22T01:01:44.756Z,-2
2018-03-22T01:02:35.302Z,-2
2018-03-22T01:03:25.071Z,-2
2018-03-22T01:04:15.439Z,-2
2018-03-22T01:05:04.993Z,-2
2018-03-22T01:05:55.240Z,-2
2018-03-22T01:06:45.565Z,-2
2018-03-22T01:07:35.933Z,-2
2018-03-22T01:08:25.213Z,-2
2018-03-22T01:09:15.771Z,-2
2018-03-22T01:10:05.105Z,-2
2018-03-22T01:10:55.873Z,-2.1
2018-03-22T01:11:45.763Z,-2
2018-03-22T01:12:35.707Z,-2
2018-03-22T01:13:26.073Z,-2
2018-03-22T01:14:15.722Z,-2.1
2018-03-22T01:15:05.583Z,-2
2018-03-22T01:15:55.933Z,-2.1
2018-03-22T01:16:46.000Z,-2
2018-03-22T01:17:36.365Z,-2.1
2018-03-22T01:18:25.927Z,-2.1
2018-03-22T01:19:15.985Z,-2.1
2018-03-22T01:20:05.951Z,-2.1
2018-03-22T01:20:56.100Z,-2.1
2018-03-22T01:21:46.344Z,-2.1
2018-03-22T01:22:36.191Z,-2.1
2018-03-22T01:23:26.359Z,-2.1
2018-03-22T01:24:16.532Z,-2.1
2018-03-22T01:25:06.394Z,-2.1
2018-03-22T01:25:56.442Z,-2.1
2018-03-22T01:26:47.296Z,-2.1
2018-03-22T01:27:36.555Z,-2.1
2018-03-22T01:28:26.881Z,-2.1
2018-03-22T01:29:16.284Z,-2.1
2018-03-22T01:30:06.737Z,-2.1
2018-03-22T01:30:56.498Z,-2.1
2018-03-22T01:31:46.736Z,-2.1
2018-03-22T01:32:37.110Z,-2.1
2018-03-22T01:33:27.183Z,-2.1
2018-03-22T01:34:17.302Z,-2.1
2018-03-22T01:35:07.889Z,-2.1
2018-03-22T01:35:57.339Z,-2.1
2018-03-22T01:36:47.696Z,-2.1
2018-03-22T01:37:37.854Z,-2.1
2018-03-22T01:38:27.219Z,-2.1
2018-03-22T01:39:17.858Z,-2.1
2018-03-22T01:40:07.646Z,-2.1
2018-03-22T01:40:57.771Z,-2.1
2018-03-22T01:41:47.552Z,-2.1
2018-03-22T01:42:37.534Z,-2.1
2018-03-22T01:43:28.447Z,-2.1
2018-03-22T01:44:17.718Z,-2.1
2018-03-22T01:45:07.753Z,-2.1
2018-03-22T01:45:58.051Z,-2.1
2018-03-22T01:46:48.086Z,-2.1
2018-03-22T01:47:38.175Z,-2.1
2018-03-22T01:48:28.808Z,-2.1
2018-03-22T01:49:18.541Z,-2.1
2018-03-22T01:50:08.318Z,-2.1
2018-03-22T01:50:58.379Z,-2.1
2018-03-22T01:51:49.065Z,-2.1
2018-03-22T01:52:38.381Z,-2.1
2018-03-22T01:53:28.853Z,-2.1
2018-03-22T01:54:18.630Z,-2.1
2018-03-22T01:55:08.673Z,-2.1
2018-03-22T01:55:58.835Z,-2.1
2018-03-22T01:56:48.785Z,-2.1
2018-03-22T01:57:38.544Z,-2.1
2018-03-22T01:58:29.777Z,-2.1
2018-03-22T01:59:18.478Z,-2.1
2018-03-22T02:00:09.340Z,-2.1
2018-03-22T02:00:59.360Z,-2.1
2018-03-22T02:01:49.573Z,-2.1
2018-03-22T02:02:39.772Z,-2.1
2018-03-22T02:03:29.569Z,-2.1
2018-03-22T02:04:19.700Z,-2.1
2018-03-22T02:05:09.183Z,-2.1
2018-03-22T02:05:59.330Z,-2.1
2018-03-22T02:06:49.770Z,-2.1
2018-03-22T02:07:39.267Z,-2.2
2018-03-22T02:08:29.696Z,-2.1
2018-03-22T02:09:19.661Z,-2.1
2018-03-22T02:10:09.489Z,-2.1
2018-03-22T02:10:59.870Z,-2.1
2018-03-22T02:11:50.137Z,-2.1
2018-03-22T02:12:39.876Z,-2.1
2018-03-22T02:13:29.769Z,-2.1
2018-03-22T02:14:19.607Z,-2.1
2018-03-22T02:15:10.079Z,-2.1
2018-03-22T02:16:00.129Z,-2.1
2018-03-22T02:16:50.170Z,-2.2
2018-03-22T02:17:40.255Z,-2.1
2018-03-22T02:18:30.602Z,-2.2
2018-03-22T02:19:20.671Z,-2.2
2018-03-22T02:20:10.229Z,-2.2
2018-03-22T02:21:00.485Z,-2.2
2018-03-22T02:21:50.138Z,-2.2
2018-03-22T02:22:40.688Z,-2.2
2018-03-22T02:23:30.549Z,-2.2
2018-03-22T02:24:20.997Z,-2.2
2018-03-22T02:25:11.064Z,-2.2
2018-03-22T02:26:00.843Z,-2.2
2018-03-22T02:26:51.185Z,-2.2
2018-03-22T02:27:41.241Z,-2.2
2018-03-22T02:28:31.298Z,-2.2
2018-03-22T02:29:20.791Z,-2.2
2018-03-22T02:30:11.416Z,-2.2
2018-03-22T02:31:01.268Z,-2.2
2018-03-22T02:31:51.246Z,-2.2
2018-03-22T02:32:40.806Z,-2.2
2018-03-22T02:33:31.365Z,-2.2
2018-03-22T02:34:21.404Z,-2.2
2018-03-22T02:35:11.173Z,-2.2
2018-03-22T02:36:00.752Z,-2.2
2018-03-22T02:36:51.873Z,-2.2
2018-03-22T02:37:41.753Z,-2.2
2018-03-22T02:38:31.705Z,-2.2
2018-03-22T02:39:21.558Z,-2.2
2018-03-22T02:40:12.433Z,-2.3
2018-03-22T02:41:02.152Z,-2.3
2018-03-22T02:41:52.048Z,-2.2
2018-03-22T02:42:41.608Z,-2.2
2018-03-22T02:43:32.065Z,-2.3
2018-03-22T02:44:22.710Z,-2.2
2018-03-22T02:45:11.982Z,-2.3
2018-03-22T02:46:02.223Z,-2.3
2018-03-22T02:46:52.599Z,-2.3
2018-03-22T02:47:42.667Z,-2.3
2018-03-22T02:48:32.303Z,-2.3
2018-03-22T02:49:22.481Z,-2.3
2018-03-22T02:50:12.789Z,-2.3
2018-03-22T02:51:02.913Z,-2.3
2018-03-22T02:51:52.647Z,-2.3
2018-03-22T02:52:42.786Z,-2.3
2018-03-22T02:53:32.755Z,-2.2
2018-03-22T02:54:22.622Z,-2.3
2018-03-22T02:55:12.880Z,-2.3
2018-03-22T02:56:02.934Z,-2.3
2018-03-22T02:56:52.997Z,-2.3
2018-03-22T02:57:42.858Z,-2.3
2018-03-22T02:58:33.009Z,-2.3
2018-03-22T02:59:22.885Z,-2.3
2018-03-22T03:00:13.324Z,-2.3
2018-03-22T03:01:03.296Z,-2.3
2018-03-22T03:01:53.623Z,-2.3
2018-03-22T03:02:43.103Z,-2.3
2018-03-22T03:03:33.457Z,-2.3
2018-03-22T03:04:23.325Z,-2.3
2018-03-22T03:05:13.373Z,-2.3
2018-03-22T03:06:03.716Z,-2.3
2018-03-22T03:06:53.492Z,-2.3
2018-03-22T03:07:43.743Z,-2.3
2018-03-22T03:08:34.096Z,-2.3
2018-03-22T03:09:23.458Z,-2.3
2018-03-22T03:10:13.511Z,-2.3
2018-03-22T03:11:03.791Z,-2.3
2018-03-22T03:11:53.459Z,-2.3
2018-03-22T03:12:43.984Z,-2.3
2018-03-22T03:13:34.226Z,-2.3
2018-03-22T03:14:24.475Z,-2.3
2018-03-22T03:15:14.082Z,-2.3
2018-03-22T03:16:04.600Z,-2.3
2018-03-22T03:16:54.685Z,-2.3
2018-03-22T03:17:44.515Z,-2.3
2018-03-22T03:18:34.589Z,-2.4
2018-03-22T03:19:24.858Z,-2.3
2018-03-22T03:20:14.607Z,-2.4
2018-03-22T03:21:04.747Z,-2.3
2018-03-22T03:21:54.992Z,-2.4
2018-03-22T03:22:44.508Z,-2.3
2018-03-22T03:23:35.407Z,-2.4
2018-03-22T03:24:24.615Z,-2.4
2018-03-22T03:25:14.762Z,-2.4
2018-03-22T03:26:05.002Z,-2.4
2018-03-22T03:26:54.580Z,-2.4
2018-03-22T03:27:45.140Z,-2.4
2018-03-22T03:28:35.502Z,-2.4
2018-03-22T03:29:25.827Z,-2.4
2018-03-22T03:30:15.026Z,-2.4
2018-03-22T03:31:05.377Z,-2.4
2018-03-22T03:31:55.492Z,-2.4
2018-03-22T03:32:45.493Z,-2.4
2018-03-22T03:33:35.262Z,-2.4
2018-03-22T03:34:26.177Z,-2.4
2018-03-22T03:35:15.377Z,-2.4
2018-03-22T03:36:05.531Z,-2.4
2018-03-22T03:36:55.794Z,-2.4
2018-03-22T03:37:45.352Z,-2.4
2018-03-22T03:38:35.312Z,-2.4
2018-03-22T03:39:25.998Z,-2.4
2018-03-22T03:40:16.029Z,-2.4
2018-03-22T03:41:06.169Z,-2.4
2018-03-22T03:41:55.824Z,-2.4
2018-03-22T03:42:46.281Z,-2.4
2018-03-22T03:43:36.867Z,-2.4
2018-03-22T03:44:26.314Z,-2.4
2018-03-22T03:45:16.661Z,-2.4
2018-03-22T03:46:06.217Z,-2.4
2018-03-22T03:46:56.777Z,-2.4
2018-03-22T03:47:46.256Z,-2.4
2018-03-22T03:48:36.776Z,-2.4
2018-03-22T03:49:26.456Z,-2.4
2018-03-22T03:50:16.792Z,-2.4
2018-03-22T03:51:07.370Z,-2.4
2018-03-22T03:51:56.919Z,-2.4
2018-03-22T03:52:47.482Z,-2.4
2018-03-22T03:53:37.226Z,-2.4
2018-03-22T03:54:27.279Z,-2.4
2018-03-22T03:55:17.148Z,-2.4
2018-03-22T03:56:07.429Z,-2.4
2018-03-22T03:56:56.960Z,-2.4
2018-03-22T03:57:47.525Z,-2.4
2018-03-22T03:58:37.566Z,-2.4
2018-03-22T03:59:27.664Z,-2.4
2018-03-22T04:00:17.486Z,-2.4
2018-03-22T04:01:07.760Z,-2.4
2018-03-22T04:01:57.330Z,-2.4
2018-03-22T04:02:47.581Z,-2.4
2018-03-22T04:03:37.426Z,-2.4
2018-03-22T04:04:27.996Z,-2.4
2018-03-22T04:05:18.338Z,-2.4
2018-03-22T04:06:07.817Z,-2.4
2018-03-22T04:06:57.287Z,-2.4
2018-03-22T04:07:47.922Z,-2.4
2018-03-22T04:08:37.985Z,-2.4
2018-03-22T04:09:28.340Z,-2.4
2018-03-22T04:10:18.090Z,-2.4
2018-03-22T04:11:08.505Z,-2.4
2018-03-22T04:11:58.808Z,-2.4
2018-03-22T04:12:48.832Z,-2.4
2018-03-22T04:13:38.927Z,-2.4
2018-03-22T04:14:28.391Z,-2.4
2018-03-22T04:15:18.455Z,-2.4
2018-03-22T04:16:08.515Z,-2.4
2018-03-22T04:16:59.204Z,-2.4
2018-03-22T04:17:48.637Z,-2.4
2018-03-22T04:18:38.387Z,-2.4
2018-03-22T04:19:28.739Z,-2.4
2018-03-22T04:20:19.076Z,-2.4
2018-03-22T04:21:08.670Z,-2.4
2018-03-22T04:21:58.798Z,-2.4
2018-03-22T04:22:48.770Z,-2.4
2018-03-22T04:23:39.020Z,-2.4
2018-03-22T04:24:29.180Z,-2.4
2018-03-22T04:25:18.749Z,-2.4
2018-03-22T04:26:08.904Z,-2.4
2018-03-22T04:26:59.261Z,-2.4
2018-03-22T04:27:49.676Z,-2.4
2018-03-22T04:28:39.372Z,-2.4
2018-03-22T04:29:29.749Z,-2.4
2018-03-22T04:30:20.066Z,-2.4
2018-03-22T04:31:09.849Z,-2.4
2018-03-22T04:31:59.613Z,-2.4
2018-03-22T04:32:50.266Z,-2.4
2018-03-22T04:33:39.713Z,-2.4
2018-03-22T04:34:30.057Z,-2.4
2018-03-22T04:35:20.131Z,-2.5
2018-03-22T04:36:09.716Z,-2.4
2018-03-22T04:36:59.764Z,-2.4
2018-03-22T04:37:50.027Z,-2.4
2018-03-22T04:38:40.147Z,-2.4
2018-03-22T04:39:30.130Z,-2.4
2018-03-22T04:40:20.174Z,-2.4
2018-03-22T04:41:10.350Z,-2.4
2018-03-22T04:42:00.205Z,-2.4
2018-03-22T04:42:50.661Z,-2.4
2018-03-22T04:43:39.933Z,-2.4
2018-03-22T04:44:30.791Z,-2.4
2018-03-22T04:45:20.841Z,-2.4
2018-03-22T04:46:10.289Z,-2.4
2018-03-22T04:47:00.192Z,-2.4
2018-03-22T04:47:50.720Z,-2.4
2018-03-22T04:48:41.358Z,-2.4
2018-03-22T04:49:30.830Z,-2.4
2018-03-22T04:50:20.893Z,-2.4
2018-03-22T04:51:10.456Z,-2.4
2018-03-22T04:52:00.615Z,-2.4
2018-03-22T04:52:51.064Z,-2.4
2018-03-22T04:53:41.395Z,-2.4
2018-03-22T04:54:31.468Z,-2.4
2018-03-22T04:55:21.793Z,-2.4
2018-03-22T04:56:11.585Z,-2.4
2018-03-22T04:57:01.325Z,-2.4
2018-03-22T04:57:52.013Z,-2.4
2018-03-22T04:58:41.752Z,-2.4
2018-03-22T04:59:31.834Z,-2.4
2018-03-22T05:00:21.607Z,-2.4
2018-03-22T05:01:11.942Z,-2.4
2018-03-22T05:02:01.415Z,-2.4
2018-03-22T05:02:52.040Z,-2.4
2018-03-22T05:03:42.079Z,-2.4
2018-03-22T05:04:32.152Z,-2.4
2018-03-22T05:05:22.488Z,-2.4
2018-03-22T05:06:12.314Z,-2.4
2018-03-22T05:07:02.387Z,-2.4
2018-03-22T05:07:52.674Z,-2.4
2018-03-22T05:08:42.447Z,-2.4
2018-03-22T05:09:32.779Z,-2.4
2018-03-22T05:10:22.869Z,-2.4
2018-03-22T05:11:12.896Z,-2.4
2018-03-22T05:12:02.981Z,-2.4
2018-03-22T05:12:52.728Z,-2.4
2018-03-22T05:13:42.568Z,-2.4
2018-03-22T05:14:33.161Z,-2.4
2018-03-22T05:15:22.937Z,-2.4
2018-03-22T05:16:12.982Z,-2.4
2018-03-22T05:17:03.036Z,-2.4
2018-03-22T05:17:53.079Z,-2.4
2018-03-22T05:18:43.651Z,-2.4
2018-03-22T05:19:33.189Z,-2.4
2018-03-22T05:20:23.286Z,-2.4
2018-03-22T05:21:13.603Z,-2.4
2018-03-22T05:22:03.652Z,-2.4
2018-03-22T05:22:53.440Z,-2.4
2018-03-22T05:23:43.818Z,-2.4
2018-03-22T05:24:33.880Z,-2.4
2018-03-22T05:25:23.893Z,-2.4
2018-03-22T05:26:13.934Z,-2.4
2018-03-22T05:27:04.021Z,-2.4
2018-03-22T05:27:54.054Z,-2.4
2018-03-22T05:28:44.127Z,-2.4
2018-03-22T05:29:34.167Z,-2.4
2018-03-22T05:30:24.233Z,-2.4
2018-03-22T05:31:14.308Z,-2.4
2018-03-22T05:32:04.069Z,-2.4
2018-03-22T05:32:54.393Z,-2.4
2018-03-22T05:33:44.451Z,-2.4
2018-03-22T05:34:34.563Z,-2.4
2018-03-22T05:35:24.591Z,-2.4
2018-03-22T05:36:14.624Z,-2.4
2018-03-22T05:37:04.426Z,-2.4
2018-03-22T05:37:54.738Z,-2.4
2018-03-22T05:38:44.808Z,-2.4
2018-03-22T05:39:34.865Z,-2.4
2018-03-22T05:40:24.920Z,-2.4
2018-03-22T05:41:14.968Z,-2.4
2018-03-22T05:42:05.082Z,-2.4
2018-03-22T05:42:54.794Z,-2.4
2018-03-22T05:43:44.996Z,-2.3
2018-03-22T05:44:34.950Z,-2.4
2018-03-22T05:45:24.703Z,-2.4
2018-03-22T05:46:14.850Z,-2.4
2018-03-22T05:47:04.822Z,-2.3
2018-03-22T05:47:54.978Z,-2.3
2018-03-22T05:48:45.515Z,-2.3
2018-03-22T05:49:35.308Z,-2.4
2018-03-22T05:50:25.244Z,-2.3
2018-03-22T05:51:14.918Z,-2.3
2018-03-22T05:52:05.347Z,-2.3
2018-03-22T05:52:55.247Z,-2.3
2018-03-22T05:53:45.286Z,-2.3
2018-03-22T05:54:35.051Z,-2.3
2018-03-22T05:55:25.498Z,-2.3
2018-03-22T05:56:15.067Z,-2.3
2018-03-22T05:57:05.332Z,-2.3
2018-03-22T05:57:55.868Z,-2.3
2018-03-22T05:58:45.928Z,-2.3
2018-03-22T05:59:35.797Z,-2.3
2018-03-22T06:00:25.852Z,-2.3
2018-03-22T06:01:16.398Z,-2.3
2018-03-22T06:02:05.777Z,-2.3
2018-03-22T06:02:56.227Z,-2.2
2018-03-22T06:03:46.070Z,-2.2
2018-03-22T06:04:35.753Z,-2.2
2018-03-22T06:05:26.097Z,-2.2
2018-03-22T06:06:15.967Z,-2.2
2018-03-22T06:07:05.726Z,-2.1
2018-03-22T06:07:56.415Z,-2.2
2018-03-22T06:08:47.059Z,-2.1
2018-03-22T06:09:36.679Z,-2.1
2018-03-22T06:10:26.749Z,-2.1
2018-03-22T06:11:16.877Z,-2.1
2018-03-22T06:12:06.361Z,-2.1
2018-03-22T06:12:56.617Z,-2.1
2018-03-22T06:13:46.697Z,-2.1
2018-03-22T06:14:37.004Z,-2.1
2018-03-22T06:15:26.516Z,-2.1
2018-03-22T06:16:17.132Z,-2.1
2018-03-22T06:17:06.721Z,-2
2018-03-22T06:17:57.049Z,-2.1
2018-03-22T06:18:46.732Z,-2
2018-03-22T06:19:36.787Z,-2
2018-03-22T06:20:26.929Z,-2
2018-03-22T06:21:17.397Z,-2
2018-03-22T06:22:06.971Z,-2
2018-03-22T06:22:57.385Z,-1.9
2018-03-22T06:23:47.672Z,-2
2018-03-22T06:24:37.521Z,-1.9
2018-03-22T06:25:27.196Z,-1.9
2018-03-22T06:26:17.269Z,-1.9
2018-03-22T06:27:07.414Z,-1.9
2018-03-22T06:27:57.968Z,-1.9
2018-03-22T06:28:48.063Z,-1.9
2018-03-22T06:29:37.851Z,-1.9
2018-03-22T06:30:27.048Z,-1.9
2018-03-22T06:31:17.780Z,-1.9
2018-03-22T06:32:08.021Z,-1.9
2018-03-22T06:32:57.913Z,-1.9
2018-03-22T06:33:47.585Z,-1.9
2018-03-22T06:34:38.213Z,-1.9
2018-03-22T06:35:28.281Z,-1.9
2018-03-22T06:36:18.051Z,-1.8
2018-03-22T06:37:08.395Z,-1.8
2018-03-22T06:37:58.533Z,-1.8
2018-03-22T06:38:48.706Z,-1.8
2018-03-22T06:39:38.255Z,-1.8
2018-03-22T06:40:28.428Z,-1.8
2018-03-22T06:41:18.483Z,-1.8
2018-03-22T06:42:08.046Z,-1.8
2018-03-22T06:42:58.452Z,-1.8
2018-03-22T06:43:48.357Z,-1.8
2018-03-22T06:44:38.825Z,-1.8
2018-03-22T06:45:28.958Z,-1.8
2018-03-22T06:46:19.043Z,-1.8
2018-03-22T06:47:09.072Z,-1.8
2018-03-22T06:47:58.850Z,-1.8
2018-03-22T06:48:48.815Z,-1.8
2018-03-22T06:49:39.181Z,-1.8
2018-03-22T06:50:29.322Z,-1.8
2018-03-22T06:51:19.076Z,-1.8
2018-03-22T06:52:09.322Z,-1.8
2018-03-22T06:52:59.997Z,-1.8
2018-03-22T06:53:49.555Z,-1.8
2018-03-22T06:54:39.895Z,-1.8
2018-03-22T06:55:28.979Z,-1.8
2018-03-22T06:56:19.477Z,-1.8
2018-03-22T06:57:09.474Z,-1.8
2018-03-22T06:58:00.119Z,-1.8
2018-03-22T06:58:49.889Z,-1.8
2018-03-22T06:59:40.144Z,-1.8
2018-03-22T07:00:30.189Z,-1.8
2018-03-22T07:01:20.151Z,-1.8
2018-03-22T07:02:10.109Z,-1.8
2018-03-22T07:03:00.676Z,-1.8
2018-03-22T07:03:50.454Z,-1.8
2018-03-22T07:04:40.302Z,-1.8
2018-03-22T07:05:30.270Z,-1.8
2018-03-22T07:06:20.308Z,-1.8
2018-03-22T07:07:09.984Z,-1.8
2018-03-22T07:08:00.533Z,-1.8
2018-03-22T07:08:50.491Z,-1.8
2018-03-22T07:09:41.133Z,-1.8
2018-03-22T07:10:30.336Z,-1.8
2018-03-22T07:11:20.661Z,-1.8
2018-03-22T07:12:10.723Z,-1.8
2018-03-22T07:13:00.875Z,-1.8
2018-03-22T07:13:51.138Z,-1.8
2018-03-22T07:14:41.295Z,-1.9
2018-03-22T07:15:30.838Z,-1.8
2018-03-22T07:16:21.194Z,-1.8
2018-03-22T07:17:11.641Z,-1.8
2018-03-22T07:18:01.500Z,-1.8
2018-03-22T07:18:51.484Z,-1.8
2018-03-22T07:19:41.539Z,-1.8
2018-03-22T07:20:31.302Z,-1.9
2018-03-22T07:21:21.532Z,-1.8
2018-03-22T07:22:11.400Z,-1.8
2018-03-22T07:23:01.347Z,-1.8
2018-03-22T07:23:51.528Z,-1.9
2018-03-22T07:24:42.190Z,-1.8
2018-03-22T07:25:31.682Z,-1.8
2018-03-22T07:26:21.697Z,-1.8
2018-03-22T07:27:12.042Z,-1.8
2018-03-22T07:28:02.102Z,-1.8
2018-03-22T07:28:51.757Z,-1.8
2018-03-22T07:29:42.224Z,-1.8
2018-03-22T07:30:32.001Z,-1.8
2018-03-22T07:31:22.612Z,-1.8
2018-03-22T07:32:12.466Z,-1.8
2018-03-22T07:33:02.445Z,-1.8
2018-03-22T07:33:52.264Z,-1.8
2018-03-22T07:34:42.270Z,-1.8
2018-03-22T07:35:32.877Z,-1.8
2018-03-22T07:36:22.944Z,-1.8
2018-03-22T07:37:12.724Z,-1.8
2018-03-22T07:38:02.865Z,-1.8
2018-03-22T07:38:53.147Z,-1.8
2018-03-22T07:39:42.921Z,-1.8
2018-03-22T07:40:32.693Z,-1.8
2018-03-22T07:41:23.038Z,-1.8
2018-03-22T07:42:12.506Z,-1.8
2018-03-22T07:43:02.562Z,-1.8
2018-03-22T07:43:52.549Z,-1.8
2018-03-22T07:44:43.234Z,-1.7
2018-03-22T07:45:33.031Z,-1.8
2018-03-22T07:46:23.373Z,-1.7
2018-03-22T07:47:13.145Z,-1.7
2018-03-22T07:48:03.196Z,-1.7
2018-03-22T07:48:53.560Z,-1.7
2018-03-22T07:49:43.704Z,-1.7
2018-03-22T07:50:33.379Z,-1.7
2018-03-22T07:51:23.720Z,-1.7
2018-03-22T07:52:13.275Z,-1.6
2018-03-22T07:53:04.133Z,-1.6
2018-03-22T07:53:53.596Z,-1.6
2018-03-22T07:54:43.940Z,-1.6
2018-03-22T07:55:33.702Z,-1.6
2018-03-22T07:56:24.045Z,-1.6
2018-03-22T07:57:14.420Z,-1.6
2018-03-22T07:58:03.962Z,-1.6
2018-03-22T07:58:54.605Z,-1.5
2018-03-22T07:59:44.002Z,-1.5
2018-03-22T08:00:34.076Z,-1.5
2018-03-22T08:01:23.835Z,-1.5
2018-03-22T08:02:13.900Z,-1.5
2018-03-22T08:03:04.222Z,-1.4
2018-03-22T08:03:54.585Z,-1.4
2018-03-22T08:04:44.065Z,-1.4
2018-03-22T08:05:34.797Z,-1.4
2018-03-22T08:06:24.474Z,-1.3
2018-03-22T08:07:14.527Z,-1.3
2018-03-22T08:08:04.885Z,-1.3
2018-03-22T08:08:54.242Z,-1.3
2018-03-22T08:09:45.272Z,-1.3
2018-03-22T08:10:35.037Z,-1.3
2018-03-22T08:11:24.509Z,-1.2
2018-03-22T08:12:15.445Z,-1.2
2018-03-22T08:13:04.916Z,-1.2
2018-03-22T08:13:54.986Z,-1.1
2018-03-22T08:14:44.740Z,-1.1
2018-03-22T08:15:35.091Z,-1.1
2018-03-22T08:16:25.724Z,-1.1
2018-03-22T08:17:15.515Z,-1
2018-03-22T08:18:05.844Z,-1
2018-03-22T08:20:36.156Z,-0.9
2018-03-22T08:21:25.569Z,-0.9
2018-03-22T08:22:15.848Z,-0.8
2018-03-22T08:23:05.413Z,-0.8
2018-03-22T08:23:55.265Z,-0.8
2018-03-22T08:24:45.813Z,-0.8
2018-03-22T08:25:35.670Z,-0.7
2018-03-22T08:26:25.923Z,-0.7
2018-03-22T08:27:16.499Z,-0.6
2018-03-22T08:28:06.135Z,-0.6
2018-03-22T08:28:56.088Z,-0.6
2018-03-22T08:29:46.080Z,-0.6
2018-03-22T08:30:35.350Z,-0.5
2018-03-22T08:31:25.695Z,-0.5
2018-03-22T08:32:15.547Z,-0.4
2018-03-22T08:33:06.114Z,-0.4
2018-03-22T08:33:56.645Z,-0.4
2018-03-22T08:34:46.990Z,-0.4
2018-03-22T08:35:36.201Z,-0.3
2018-03-22T08:36:26.525Z,-0.3
2018-03-22T08:37:16.864Z,-0.3
2018-03-22T08:38:06.718Z,-0.2
2018-03-22T08:38:56.780Z,-0.2
2018-03-22T08:39:46.853Z,-0.1
2018-03-22T08:40:36.807Z,-0.1
2018-03-22T08:41:27.248Z,-0.1
2018-03-22T08:42:17.235Z,-0.1
2018-03-22T08:43:07.558Z,0
2018-03-22T08:43:57.327Z,0.1
2018-03-22T08:44:47.140Z,0.1
2018-03-22T08:45:36.777Z,0.1
2018-03-22T08:46:27.807Z,0.1
2018-03-22T08:47:17.295Z,0.1
2018-03-22T08:48:07.624Z,0.2
2018-03-22T08:48:57.481Z,0.3
2018-03-22T08:49:47.745Z,0.3
2018-03-22T08:50:37.824Z,0.3
2018-03-22T08:51:27.762Z,0.3
2018-03-22T08:52:17.621Z,0.3
2018-03-22T08:53:07.766Z,0.4
2018-03-22T08:53:57.745Z,0.4
2018-03-22T08:54:48.578Z,0.4
2018-03-22T08:55:38.412Z,0.5
2018-03-22T08:56:28.484Z,0.5
2018-03-22T08:57:18.039Z,0.5
2018-03-22T08:58:07.880Z,0.6
2018-03-22T08:58:57.904Z,0.6
2018-03-22T08:59:47.694Z,0.6
2018-03-22T09:00:38.199Z,0.6
2018-03-22T09:01:28.059Z,0.7
2018-03-22T09:02:18.124Z,0.8
2018-03-22T09:03:08.088Z,0.8
2018-03-22T09:03:58.717Z,0.9
2018-03-22T09:04:48.768Z,0.9
2018-03-22T09:05:38.416Z,1
2018-03-22T09:06:29.175Z,1.1
2018-03-22T09:07:18.460Z,1.3
2018-03-22T09:08:08.806Z,1.4
2018-03-22T09:08:59.068Z,1.6
2018-03-22T09:09:48.977Z,1.7
2018-03-22T09:10:39.166Z,1.8
2018-03-22T09:11:28.962Z,1.9
2018-03-22T09:12:19.014Z,2
2018-03-22T09:13:09.231Z,2.1
2018-03-22T09:13:59.676Z,2.3
2018-03-22T09:14:49.163Z,2.4
2018-03-22T09:15:39.107Z,2.4
2018-03-22T09:16:29.107Z,2.5
2018-03-22T09:17:19.622Z,2.6
2018-03-22T09:18:09.698Z,2.6
2018-03-22T09:18:59.464Z,2.7
2018-03-22T09:19:49.433Z,2.6
2018-03-22T09:20:39.470Z,2.6
2018-03-22T09:21:29.360Z,2.7
2018-03-22T09:22:19.782Z,2.6
2018-03-22T09:23:09.853Z,2.6
2018-03-22T09:23:59.798Z,2.5
2018-03-22T09:24:50.168Z,2.5
2018-03-22T09:25:39.918Z,2.4
2018-03-22T09:26:30.075Z,2.4
2018-03-22T09:27:19.858Z,2.4
2018-03-22T09:28:10.184Z,2.4
2018-03-22T09:29:00.445Z,2.4
2018-03-22T09:29:50.206Z,2.4
2018-03-22T09:30:40.877Z,2.4
2018-03-22T09:31:29.826Z,2.4
2018-03-22T09:32:20.364Z,2.4
2018-03-22T09:33:10.460Z,2.4
2018-03-22T09:34:00.772Z,2.4
2018-03-22T09:34:50.780Z,2.4
2018-03-22T09:35:40.714Z,2.4
2018-03-22T09:36:30.562Z,2.3
2018-03-22T09:37:20.721Z,2.3
2018-03-22T09:38:11.164Z,2.3
2018-03-22T09:39:01.405Z,2.3
2018-03-22T09:39:51.184Z,2.3
2018-03-22T09:40:40.954Z,2.3
2018-03-22T09:41:31.598Z,2.3
2018-03-22T09:42:21.357Z,2.3
2018-03-22T09:43:10.634Z,2.3
2018-03-22T09:44:01.781Z,2.3
2018-03-22T09:44:51.339Z,2.3
2018-03-22T09:45:41.000Z,2.3
2018-03-22T09:46:31.432Z,2.2
2018-03-22T09:47:21.404Z,2.3
2018-03-22T09:48:11.553Z,2.2
2018-03-22T09:49:01.807Z,2.2
2018-03-22T09:49:51.978Z,2.2
2018-03-22T09:50:41.643Z,2.2
2018-03-22T09:51:31.371Z,2.2
2018-03-22T09:52:21.749Z,2.1
2018-03-22T09:53:11.891Z,2.1
2018-03-22T09:54:01.601Z,2.1
2018-03-22T09:54:51.916Z,2.1
2018-03-22T09:55:42.278Z,2.1
2018-03-22T09:56:31.649Z,2.1
2018-03-22T09:57:22.694Z,2.1
2018-03-22T09:58:12.150Z,2
2018-03-22T09:59:02.837Z,2
2018-03-22T09:59:52.854Z,2
2018-03-22T10:00:42.872Z,1.9
2018-03-22T10:01:32.952Z,1.9
2018-03-22T10:02:23.004Z,1.9
2018-03-22T10:03:12.770Z,1.9
2018-03-22T10:04:02.830Z,1.9
2018-03-22T10:04:53.166Z,1.9
2018-03-22T10:05:42.954Z,1.9
2018-03-22T10:06:33.275Z,1.8
2018-03-22T10:07:23.400Z,1.8
2018-03-22T10:08:13.395Z,1.8
2018-03-22T10:09:03.206Z,1.8
2018-03-22T10:09:53.220Z,1.8
2018-03-22T10:10:43.006Z,1.7
2018-03-22T10:11:33.641Z,1.7
2018-03-22T10:12:23.680Z,1.7
2018-03-22T10:13:13.758Z,1.7
2018-03-22T10:14:03.230Z,1.6
2018-03-22T10:14:53.889Z,1.6
2018-03-22T10:15:43.933Z,1.6
2018-03-22T10:16:33.951Z,1.6
2018-03-22T10:17:23.464Z,1.6
2018-03-22T10:18:14.153Z,1.6
2018-03-22T10:19:03.882Z,1.6
2018-03-22T10:19:54.195Z,1.6
2018-03-22T10:20:44.269Z,1.5
2018-03-22T10:21:34.007Z,1.5
2018-03-22T10:22:24.382Z,1.5
2018-03-22T10:23:14.429Z,1.5
2018-03-22T10:24:04.478Z,1.5
2018-03-22T10:24:54.567Z,1.5
2018-03-22T10:25:44.330Z,1.5
2018-03-22T10:26:34.664Z,1.5
2018-03-22T10:27:24.467Z,1.4
2018-03-22T10:28:14.492Z,1.4
2018-03-22T10:29:04.277Z,1.4
2018-03-22T10:29:54.878Z,1.4
2018-03-22T10:30:44.984Z,1.4
2018-03-22T10:31:35.002Z,1.4
2018-03-22T10:32:25.065Z,1.4
2018-03-22T10:33:15.137Z,1.4
2018-03-22T10:34:04.926Z,1.4
2018-03-22T10:34:54.928Z,1.4
2018-03-22T10:35:44.751Z,1.4
2018-03-22T10:36:34.291Z,1.4
2018-03-22T10:37:24.354Z,1.4
2018-03-22T10:38:15.683Z,1.4
2018-03-22T10:39:04.966Z,1.4
2018-03-22T10:39:54.519Z,1.4
2018-03-22T10:40:44.854Z,1.4
2018-03-22T10:41:35.419Z,1.4
2018-03-22T10:42:25.271Z,1.5
2018-03-22T10:43:15.513Z,1.5
2018-03-22T10:44:05.047Z,1.5
2018-03-22T10:44:55.649Z,1.5
2018-03-22T10:45:45.416Z,1.5
2018-03-22T10:46:35.471Z,1.5
2018-03-22T10:47:25.523Z,1.5
2018-03-22T10:48:15.864Z,1.5
2018-03-22T10:49:05.350Z,1.5
2018-03-22T10:49:55.803Z,1.5
2018-03-22T10:50:45.755Z,1.5
2018-03-22T10:51:35.611Z,1.5
2018-03-22T10:52:26.039Z,1.5
2018-03-22T10:53:16.197Z,1.5
2018-03-22T10:54:06.066Z,1.5
2018-03-22T10:54:55.913Z,1.5
2018-03-22T10:55:46.393Z,1.6
2018-03-22T10:56:36.540Z,1.5
2018-03-22T10:57:26.202Z,1.5
2018-03-22T10:58:15.997Z,1.6
2018-03-22T10:59:06.608Z,1.6
2018-03-22T10:59:56.073Z,1.6
2018-03-22T11:00:46.507Z,1.6
2018-03-22T11:01:35.902Z,1.6
2018-03-22T11:02:26.434Z,1.6
2018-03-22T11:03:16.695Z,1.6
2018-03-22T11:04:06.974Z,1.6
2018-03-22T11:04:56.422Z,1.6
2018-03-22T11:05:46.591Z,1.6
2018-03-22T11:06:37.124Z,1.6
2018-03-22T11:07:27.189Z,1.6
2018-03-22T11:08:17.541Z,1.6
2018-03-22T11:09:07.279Z,1.6
2018-03-22T11:09:57.061Z,1.7
2018-03-22T11:10:47.112Z,1.7
2018-03-22T11:11:37.462Z,1.7
2018-03-22T11:12:27.251Z,1.7
2018-03-22T11:13:16.988Z,1.8
2018-03-22T11:14:07.644Z,1.7
2018-03-22T11:14:57.435Z,1.8